createdAt,value
2023-03-22T00:00:29.066Z,12.35
2023-03-22T00:02:00.742Z,11.60
2023-03-22T00:03:33.791Z,13.20
2023-03-22T00:05:06.780Z,12.82
2023-03-22T00:06:38.372Z,12.27
2023-03-22T00:08:09.992Z,14.25
2023-03-22T00:09:41.588Z,12.27
2023-03-22T00:11:13.293Z,12.75
2023-03-22T00:12:44.856Z,12.68
2023-03-22T00:14:16.957Z,12.00
2023-03-22T00:15:49.254Z,12.20
2023-03-22T00:17:22.999Z,12.48
2023-03-22T00:18:55.952Z,12.20
2023-03-22T00:20:30.485Z,12.20
2023-03-22T00:22:03.597Z,12.10
2023-03-22T00:23:35.191Z,12.63
2023-03-22T00:25:07.348Z,12.00
2023-03-22T00:26:38.972Z,12.00
2023-03-22T00:28:10.607Z,11.10
2023-03-22T00:29:42.234Z,11.07
2023-03-22T00:31:13.901Z,11.70
2023-03-22T00:32:45.573Z,11.48
2023-03-22T00:34:18.591Z,11.82
2023-03-22T00:35:51.408Z,11.65
2023-03-22T00:37:23.089Z,11.20
2023-03-22T00:38:54.676Z,11.30
2023-03-22T00:40:26.392Z,11.63
2023-03-22T00:41:58.028Z,12.85
2023-03-22T00:43:29.602Z,10.80
2023-03-22T00:45:01.226Z,11.55
2023-03-22T00:46:32.921Z,11.80
2023-03-22T00:48:04.637Z,11.25
2023-03-22T00:49:37.627Z,12.18
2023-03-22T00:51:09.459Z,11.30
2023-03-22T00:52:41.089Z,12.13
2023-03-22T00:54:12.717Z,11.48
2023-03-22T00:55:44.292Z,11.38
2023-03-22T00:57:16.374Z,11.30
2023-03-22T00:58:47.969Z,12.05
2023-03-22T01:00:19.795Z,11.05
2023-03-22T01:01:51.456Z,12.02
2023-03-22T01:03:24.650Z,12.13
2023-03-22T01:04:57.834Z,11.30
2023-03-22T01:06:29.464Z,10.68
2023-03-22T01:08:02.727Z,11.38
2023-03-22T01:09:34.336Z,10.85
2023-03-22T01:11:06.986Z,11.68
2023-03-22T01:12:38.648Z,11.35
2023-03-22T01:14:10.245Z,10.77
2023-03-22T01:15:41.848Z,10.73
2023-03-22T01:17:13.454Z,10.73
2023-03-22T01:18:45.176Z,10.85
2023-03-22T01:20:18.251Z,11.13
2023-03-22T01:21:50.054Z,11.07
2023-03-22T01:23:21.649Z,11.15
2023-03-22T01:24:53.233Z,10.80
2023-03-22T01:26:24.959Z,10.90
2023-03-22T01:27:56.557Z,10.82
2023-03-22T01:29:28.152Z,11.35
2023-03-22T01:31:01.606Z,10.45
2023-03-22T01:32:33.294Z,10.95
2023-03-22T01:34:04.868Z,10.95
2023-03-22T01:35:37.900Z,10.43
2023-03-22T01:37:09.573Z,11.75
2023-03-22T01:38:41.265Z,10.70
2023-03-22T01:40:13.430Z,11.95
2023-03-22T01:41:45.209Z,11.27
2023-03-22T01:43:17.204Z,11.20
2023-03-22T01:45:17.700Z,10.75
2023-03-22T01:46:49.876Z,10.43
2023-03-22T01:48:25.262Z,13.25
2023-03-22T01:49:56.872Z,10.05
2023-03-22T01:51:29.812Z,10.30
2023-03-22T01:53:04.938Z,9.27
2023-03-22T01:54:38.583Z,9.15
2023-03-22T01:56:10.198Z,9.30
2023-03-22T01:57:41.813Z,9.65
2023-03-22T01:59:13.511Z,9.57
2023-03-22T02:00:45.838Z,9.60
2023-03-22T02:02:20.269Z,9.63
2023-03-22T02:03:55.786Z,9.25
2023-03-22T02:05:27.380Z,9.80
2023-03-22T02:07:01.027Z,8.95
2023-03-22T02:08:33.554Z,9.13
2023-03-22T02:10:10.255Z,9.52
2023-03-22T02:11:42.779Z,9.07
2023-03-22T02:13:26.913Z,9.60
2023-03-22T02:15:03.463Z,8.65
2023-03-22T02:16:38.305Z,8.48
2023-03-22T02:18:18.521Z,8.85
2023-03-22T02:20:38.898Z,9.63
2023-03-22T02:22:25.905Z,9.23
2023-03-22T02:24:26.125Z,9.23
2023-03-22T02:26:32.310Z,8.68
2023-03-22T02:28:23.795Z,9.27
2023-03-22T02:30:07.052Z,9.00
2023-03-22T02:32:11.245Z,10.00
2023-03-22T02:34:00.861Z,10.07
2023-03-22T02:36:01.532Z,9.80
2023-03-22T02:37:55.634Z,9.73
2023-03-22T02:39:35.345Z,10.50
2023-03-22T02:41:10.797Z,9.60
2023-03-22T02:42:45.971Z,9.05
2023-03-22T02:44:22.596Z,9.35
2023-03-22T02:45:55.451Z,9.05
2023-03-22T02:47:34.334Z,9.32
2023-03-22T02:49:08.231Z,9.48
2023-03-22T02:50:41.522Z,9.68
2023-03-22T02:52:17.413Z,9.65
2023-03-22T02:53:51.174Z,9.60
2023-03-22T02:55:27.470Z,9.65
2023-03-22T02:57:00.750Z,9.15
2023-03-22T02:58:34.889Z,9.13
2023-03-22T03:00:13.110Z,9.13
2023-03-22T03:01:46.306Z,8.95
2023-03-22T03:03:18.383Z,9.98
2023-03-22T03:04:50.374Z,8.73
2023-03-22T03:06:22.841Z,9.32
2023-03-22T03:07:55.170Z,9.68
2023-03-22T03:09:26.811Z,9.57
2023-03-22T03:10:59.786Z,10.23
2023-03-22T03:12:31.709Z,10.40
2023-03-22T03:14:03.256Z,10.27
2023-03-22T03:15:35.817Z,9.40
2023-03-22T03:17:13.456Z,9.70
2023-03-22T03:18:48.408Z,10.43
2023-03-22T03:20:24.577Z,9.48
2023-03-22T03:21:58.841Z,10.00
2023-03-22T03:23:35.081Z,9.50
2023-03-22T03:25:09.345Z,9.10
2023-03-22T03:26:44.284Z,9.23
2023-03-22T03:28:17.665Z,9.68
2023-03-22T03:29:50.744Z,8.70
2023-03-22T03:31:28.133Z,8.75
2023-03-22T03:33:00.858Z,9.10
2023-03-22T03:34:33.945Z,8.88
2023-03-22T03:36:08.030Z,9.68
2023-03-22T03:37:41.359Z,9.88
2023-03-22T03:39:13.727Z,10.00
2023-03-22T03:40:45.950Z,9.80
2023-03-22T03:42:18.923Z,10.57
2023-03-22T03:43:51.345Z,9.70
2023-03-22T03:45:22.924Z,9.75
2023-03-22T03:46:54.559Z,11.48
2023-03-22T03:48:27.991Z,10.32
2023-03-22T03:49:59.553Z,10.40
2023-03-22T03:51:31.202Z,11.23
2023-03-22T03:53:02.811Z,10.30
2023-03-22T03:54:34.401Z,10.68
2023-03-22T03:56:07.143Z,12.00
2023-03-22T03:57:40.138Z,9.93
2023-03-22T03:59:12.342Z,10.63
2023-03-22T04:00:44.106Z,11.02
2023-03-22T04:02:16.744Z,10.00
2023-03-22T04:03:50.820Z,9.70
2023-03-22T04:05:22.657Z,9.77
2023-03-22T04:06:56.664Z,9.60
2023-03-22T04:08:28.402Z,10.00
2023-03-22T04:10:00.049Z,10.35
2023-03-22T04:11:31.657Z,10.57
2023-03-22T04:13:04.607Z,9.95
2023-03-22T04:14:36.309Z,9.52
2023-03-22T04:16:08.909Z,10.02
2023-03-22T04:17:40.469Z,9.38
2023-03-22T04:19:12.053Z,9.02
2023-03-22T04:20:45.832Z,9.40
2023-03-22T04:22:18.431Z,10.52
2023-03-22T04:23:50.000Z,10.23
2023-03-22T04:25:22.805Z,9.32
2023-03-22T04:26:54.489Z,10.13
2023-03-22T04:28:27.542Z,9.50
2023-03-22T04:30:00.982Z,9.43
2023-03-22T04:31:33.129Z,9.27
2023-03-22T04:33:07.175Z,10.63
2023-03-22T04:34:38.828Z,9.75
2023-03-22T04:36:11.302Z,9.98
2023-03-22T04:37:43.075Z,9.80
2023-03-22T04:39:15.140Z,9.50
2023-03-22T04:40:46.884Z,9.85
2023-03-22T04:42:18.479Z,9.75
2023-03-22T04:43:51.691Z,8.77
2023-03-22T04:45:23.386Z,9.98
2023-03-22T04:46:55.856Z,9.65
2023-03-22T04:48:28.099Z,10.00
2023-03-22T04:49:59.737Z,11.65
2023-03-22T04:51:32.177Z,10.75
2023-03-22T04:53:03.803Z,10.10
2023-03-22T04:54:35.450Z,10.68
2023-03-22T04:56:08.560Z,10.25
2023-03-22T04:57:40.210Z,10.63
2023-03-22T04:59:13.149Z,11.10
2023-03-22T05:00:44.794Z,10.23
2023-03-22T05:02:16.797Z,10.43
2023-03-22T05:03:48.526Z,9.85
2023-03-22T05:05:20.230Z,9.88
2023-03-22T05:06:51.853Z,11.15
2023-03-22T05:08:26.642Z,10.50
2023-03-22T05:09:58.247Z,10.82
2023-03-22T05:11:29.905Z,10.20
2023-03-22T05:13:01.481Z,9.90
2023-03-22T05:14:34.514Z,10.75
2023-03-22T05:16:06.971Z,10.30
2023-03-22T05:17:38.621Z,10.45
2023-03-22T05:19:16.105Z,10.18
2023-03-22T05:20:48.048Z,10.80
2023-03-22T05:22:22.366Z,10.20
2023-03-22T05:23:54.275Z,10.35
2023-03-22T05:25:25.990Z,10.07
2023-03-22T05:27:01.043Z,10.43
2023-03-22T05:28:32.696Z,10.05
2023-03-22T05:30:07.354Z,10.20
2023-03-22T05:31:40.355Z,9.80
2023-03-22T05:33:12.090Z,9.77
2023-03-22T05:34:45.473Z,9.75
2023-03-22T05:36:17.252Z,10.05
2023-03-22T05:37:48.837Z,9.68
2023-03-22T05:39:20.849Z,9.90
2023-03-22T05:40:52.529Z,9.18
2023-03-22T05:42:24.123Z,9.80
2023-03-22T05:43:55.849Z,10.00
2023-03-22T05:45:28.799Z,9.38
2023-03-22T05:47:00.541Z,9.10
2023-03-22T05:48:32.280Z,9.73
2023-03-22T05:50:05.296Z,9.48
2023-03-22T05:51:41.511Z,9.13
2023-03-22T05:53:13.578Z,9.60
2023-03-22T05:54:45.573Z,9.50
2023-03-22T05:56:17.564Z,9.93
2023-03-22T05:57:51.488Z,9.68
2023-03-22T05:59:23.182Z,10.10
2023-03-22T06:00:56.364Z,9.60
2023-03-22T06:02:28.380Z,11.15
2023-03-22T06:04:00.472Z,10.55
2023-03-22T06:05:32.207Z,9.75
2023-03-22T06:07:03.867Z,10.05
2023-03-22T06:08:35.493Z,9.23
2023-03-22T06:10:07.801Z,10.00
2023-03-22T06:11:39.434Z,9.75
2023-03-22T06:13:11.087Z,9.73
2023-03-22T06:14:42.694Z,9.55
2023-03-22T06:16:16.166Z,8.88
2023-03-22T06:17:47.898Z,9.27
2023-03-22T06:19:19.557Z,9.95
2023-03-22T06:20:51.182Z,9.38
2023-03-22T06:22:22.980Z,10.20
2023-03-22T06:23:54.612Z,11.45
2023-03-22T06:25:27.130Z,12.20
2023-03-22T06:26:58.971Z,12.20
2023-03-22T06:28:30.838Z,12.02
2023-03-22T06:30:02.529Z,12.52
2023-03-22T06:31:35.594Z,13.60
2023-03-22T06:33:07.144Z,11.02
2023-03-22T06:34:38.748Z,10.77
2023-03-22T06:36:10.769Z,10.85
2023-03-22T06:37:42.411Z,10.80
2023-03-22T06:39:14.036Z,11.65
2023-03-22T06:40:45.664Z,10.63
2023-03-22T06:42:17.271Z,11.57
2023-03-22T06:43:48.852Z,10.88
2023-03-22T06:45:20.661Z,11.32
2023-03-22T06:46:53.624Z,11.00
2023-03-22T06:48:25.282Z,11.07
2023-03-22T06:49:57.574Z,10.77
2023-03-22T06:51:29.211Z,10.82
2023-03-22T06:53:01.262Z,10.35
2023-03-22T06:54:33.107Z,9.95
2023-03-22T06:56:05.668Z,9.75
2023-03-22T06:57:37.284Z,9.93
2023-03-22T06:59:08.900Z,9.98
2023-03-22T07:00:41.489Z,9.20
2023-03-22T07:02:14.658Z,9.55
2023-03-22T07:03:46.229Z,9.20
2023-03-22T07:05:17.878Z,10.30
2023-03-22T07:06:49.534Z,9.80
2023-03-22T07:08:21.182Z,10.23
2023-03-22T07:09:53.333Z,9.27
2023-03-22T07:11:26.512Z,9.55
2023-03-22T07:12:58.206Z,9.38
2023-03-22T07:14:30.425Z,8.82
2023-03-22T07:16:02.429Z,9.02
2023-03-22T07:17:35.622Z,8.05
2023-03-22T07:19:07.208Z,7.05
2023-03-22T07:20:41.359Z,6.32
2023-03-22T07:22:13.165Z,6.60
2023-03-22T07:23:44.806Z,6.13
2023-03-22T07:25:16.450Z,6.05
2023-03-22T07:26:48.111Z,5.90
2023-03-22T07:28:19.777Z,6.18
2023-03-22T07:29:51.434Z,5.85
2023-03-22T07:31:23.069Z,5.13
2023-03-22T07:32:56.164Z,6.05
2023-03-22T07:34:28.058Z,5.20
2023-03-22T07:35:59.711Z,5.10
2023-03-22T07:37:31.310Z,5.20
2023-03-22T07:39:02.936Z,5.35
2023-03-22T07:40:34.602Z,4.82
2023-03-22T07:42:06.871Z,5.40
2023-03-22T07:43:52.450Z,5.30
2023-03-22T07:45:25.827Z,5.57
2023-03-22T07:46:57.500Z,5.30
2023-03-22T07:48:31.614Z,5.13
2023-03-22T07:50:04.066Z,4.65
2023-03-22T07:51:35.873Z,5.35
2023-03-22T07:53:07.511Z,5.00
2023-03-22T07:54:39.179Z,5.10
2023-03-22T07:56:10.961Z,4.95
2023-03-22T07:57:42.686Z,5.10
2023-03-22T07:59:14.450Z,5.00
2023-03-22T08:00:46.247Z,5.07
2023-03-22T08:02:17.892Z,4.47
2023-03-22T08:03:51.126Z,4.90
2023-03-22T08:05:22.685Z,5.20
2023-03-22T08:06:59.925Z,5.05
2023-03-22T08:08:32.134Z,5.07
2023-03-22T08:10:04.117Z,5.10
2023-03-22T08:11:35.804Z,5.53
2023-03-22T08:13:07.573Z,5.78
2023-03-22T08:14:39.218Z,5.78
2023-03-22T08:16:11.126Z,6.80
2023-03-22T08:17:42.783Z,6.95
2023-03-22T08:19:15.932Z,6.47
2023-03-22T08:20:52.356Z,6.22
2023-03-22T08:22:29.823Z,6.93
2023-03-22T08:24:01.534Z,6.53
2023-03-22T08:25:33.507Z,7.03
2023-03-22T08:27:05.501Z,6.95
2023-03-22T08:28:37.089Z,6.50
2023-03-22T08:30:09.849Z,6.82
2023-03-22T08:31:42.077Z,6.95
2023-03-22T08:33:14.238Z,5.88
2023-03-22T08:34:47.218Z,5.80
2023-03-22T08:36:19.969Z,6.25
2023-03-22T08:37:53.929Z,6.10
2023-03-22T08:39:26.147Z,6.00
2023-03-22T08:40:57.796Z,5.47
2023-03-22T08:42:29.377Z,5.80
2023-03-22T08:44:01.041Z,5.82
2023-03-22T08:45:32.743Z,6.05
2023-03-22T08:47:05.382Z,5.55
2023-03-22T08:48:37.991Z,6.15
2023-03-22T08:50:11.475Z,5.40
2023-03-22T08:51:43.115Z,5.35
2023-03-22T08:53:14.701Z,5.82
2023-03-22T08:54:46.643Z,4.95
2023-03-22T08:56:19.626Z,5.20
2023-03-22T08:57:51.735Z,5.20
2023-03-22T08:59:23.351Z,5.30
2023-03-22T09:00:55.010Z,5.18
2023-03-22T09:02:26.886Z,4.90
2023-03-22T09:03:58.575Z,5.25
2023-03-22T09:05:31.626Z,5.20
2023-03-22T09:07:03.406Z,7.53
2023-03-22T09:08:35.327Z,6.63
2023-03-22T09:10:08.180Z,6.15
2023-03-22T09:11:41.280Z,5.68
2023-03-22T09:13:14.904Z,5.55
2023-03-22T09:14:48.052Z,6.18
2023-03-22T09:16:19.758Z,5.55
2023-03-22T09:17:51.470Z,5.63
2023-03-22T09:19:23.088Z,5.70
2023-03-22T09:20:56.244Z,5.93
2023-03-22T09:22:27.905Z,6.10
2023-03-22T09:23:59.563Z,5.43
2023-03-22T09:25:31.195Z,5.63
2023-03-22T09:27:03.355Z,5.80
2023-03-22T09:28:35.962Z,5.97
2023-03-22T09:30:08.764Z,5.10
2023-03-22T09:31:40.480Z,5.65
2023-03-22T09:33:12.114Z,5.50
2023-03-22T09:34:43.676Z,5.90
2023-03-22T09:36:16.712Z,6.03
2023-03-22T09:37:49.390Z,5.75
2023-03-22T09:39:22.486Z,5.70
2023-03-22T09:41:04.150Z,5.93
2023-03-22T09:42:38.459Z,6.45
2023-03-22T09:44:13.128Z,6.07
2023-03-22T09:45:54.697Z,5.82
2023-03-22T09:47:43.931Z,6.10
2023-03-22T09:49:18.056Z,6.00
2023-03-22T09:50:51.955Z,5.57
2023-03-22T09:52:24.985Z,6.00
2023-03-22T09:53:56.599Z,6.22
2023-03-22T09:55:32.911Z,5.65
2023-03-22T09:57:06.847Z,5.85
2023-03-22T09:58:40.136Z,6.20
2023-03-22T10:00:14.629Z,6.65
2023-03-22T10:01:48.266Z,6.53
2023-03-22T10:03:24.575Z,6.18
2023-03-22T10:04:58.618Z,5.93
2023-03-22T10:06:30.766Z,6.47
2023-03-22T10:08:12.550Z,6.50
2023-03-22T10:09:47.257Z,6.68
2023-03-22T10:11:23.542Z,6.60
2023-03-22T10:12:57.673Z,6.82
2023-03-22T10:14:31.075Z,6.47
2023-03-22T10:16:03.475Z,6.32
2023-03-22T10:17:35.107Z,6.88
2023-03-22T10:19:08.534Z,6.70
2023-03-22T10:20:42.273Z,6.20
2023-03-22T10:22:15.736Z,6.50
2023-03-22T10:23:50.526Z,6.72
2023-03-22T10:25:23.983Z,6.13
2023-03-22T10:26:55.813Z,6.30
2023-03-22T10:28:31.246Z,6.00
2023-03-22T10:30:04.507Z,6.32
2023-03-22T10:31:36.240Z,5.72
2023-03-22T10:33:13.479Z,6.20
2023-03-22T10:34:45.097Z,5.88
2023-03-22T10:36:18.274Z,5.90
2023-03-22T10:37:50.238Z,6.13
2023-03-22T10:39:33.596Z,5.95
2023-03-22T10:41:06.770Z,6.07
2023-03-22T10:42:38.476Z,5.97
2023-03-22T10:44:10.715Z,6.05
2023-03-22T10:45:42.788Z,6.25
2023-03-22T10:47:17.117Z,5.80
2023-03-22T10:48:52.169Z,6.22
2023-03-22T10:50:28.559Z,5.80
2023-03-22T10:52:02.920Z,6.25
2023-03-22T10:53:37.546Z,5.90
2023-03-22T10:55:11.798Z,6.20
2023-03-22T10:56:45.017Z,6.07
2023-03-22T10:58:17.623Z,6.32
2023-03-22T10:59:49.911Z,6.30
2023-03-22T11:01:26.351Z,5.85
2023-03-22T11:02:58.953Z,6.18
2023-03-22T11:04:31.537Z,6.38
2023-03-22T11:06:06.312Z,6.20
2023-03-22T11:07:39.977Z,6.68
2023-03-22T11:09:12.602Z,6.05
2023-03-22T11:10:45.698Z,6.57
2023-03-22T11:12:17.455Z,7.00
2023-03-22T11:13:51.705Z,6.72
2023-03-22T11:15:25.853Z,6.53
2023-03-22T11:16:58.481Z,6.50
2023-03-22T11:18:31.510Z,6.10
2023-03-22T11:20:07.809Z,8.00
2023-03-22T11:21:39.578Z,8.55
2023-03-22T11:23:11.829Z,6.57
2023-03-22T11:24:45.617Z,6.38
2023-03-22T11:27:58.749Z,6.65
2023-03-22T11:29:30.826Z,6.38
2023-03-22T11:31:07.360Z,6.30
2023-03-22T11:32:39.470Z,5.75
2023-03-22T11:34:16.521Z,6.28
2023-03-22T11:35:54.154Z,6.05
2023-03-22T11:37:25.809Z,6.07
2023-03-22T11:38:57.927Z,5.40
2023-03-22T11:40:30.760Z,5.60
2023-03-22T11:42:06.247Z,5.82
2023-03-22T11:43:38.725Z,5.57
2023-03-22T11:45:11.145Z,5.28
2023-03-22T11:46:52.849Z,5.30
2023-03-22T11:48:36.315Z,5.40
2023-03-22T11:50:24.491Z,5.18
2023-03-22T11:51:56.342Z,5.72
2023-03-22T11:53:28.057Z,5.25
2023-03-22T11:54:59.765Z,5.63
2023-03-22T11:56:31.835Z,6.20
2023-03-22T11:58:04.882Z,6.10
2023-03-22T11:59:37.643Z,5.70
2023-03-22T12:01:10.971Z,5.50
2023-03-22T12:02:44.495Z,5.20
2023-03-22T12:04:17.777Z,5.35
2023-03-22T12:05:50.044Z,5.13
2023-03-22T12:07:24.445Z,4.75
2023-03-22T12:08:57.698Z,4.60
2023-03-22T12:10:31.195Z,5.22
2023-03-22T12:12:02.803Z,4.82
2023-03-22T12:13:39.781Z,4.10
2023-03-22T12:15:14.844Z,4.10
2023-03-22T12:16:47.844Z,4.35
2023-03-22T12:18:22.458Z,4.28
2023-03-22T12:19:58.588Z,4.13
2023-03-22T12:21:30.554Z,3.80
2023-03-22T12:23:02.287Z,4.10
2023-03-22T12:24:33.896Z,3.85
2023-03-22T12:26:06.766Z,4.13
2023-03-22T12:27:39.385Z,4.00
2023-03-22T12:29:15.461Z,3.92
2023-03-22T12:30:49.241Z,4.47
2023-03-22T12:32:24.201Z,3.90
2023-03-22T12:33:56.897Z,3.83
2023-03-22T12:35:30.684Z,3.97
2023-03-22T12:37:02.370Z,4.10
2023-03-22T12:38:37.399Z,3.88
2023-03-22T12:40:18.201Z,4.07
2023-03-22T12:42:04.552Z,3.95
2023-03-22T12:43:41.233Z,4.30
2023-03-22T12:45:15.625Z,4.05
2023-03-22T12:46:49.254Z,4.10
2023-03-22T12:48:23.416Z,3.90
2023-03-22T12:49:57.234Z,3.33
2023-03-22T12:51:28.867Z,3.83
2023-03-22T12:53:02.369Z,3.80
2023-03-22T12:54:33.974Z,3.30
2023-03-22T12:56:06.378Z,3.30
2023-03-22T12:57:41.155Z,3.50
2023-03-22T12:59:15.444Z,3.40
2023-03-22T13:00:49.784Z,3.75
2023-03-22T13:02:24.660Z,3.63
2023-03-22T13:03:57.772Z,3.40
2023-03-22T13:05:30.224Z,3.47
2023-03-22T13:07:10.132Z,3.15
2023-03-22T13:09:16.850Z,3.40
2023-03-22T13:11:15.795Z,9.00
2023-03-22T13:13:08.779Z,3.42
2023-03-22T13:14:57.940Z,3.25
2023-03-22T13:16:51.837Z,2.78
2023-03-22T13:18:33.562Z,2.65
2023-03-22T13:20:23.668Z,2.70
2023-03-22T13:22:14.363Z,2.50
2023-03-22T13:24:32.563Z,2.72
2023-03-22T13:26:04.841Z,2.55
2023-03-22T13:27:37.982Z,2.72
2023-03-22T13:29:11.453Z,2.30
2023-03-22T13:30:48.115Z,2.40
2023-03-22T13:32:29.813Z,2.10
2023-03-22T13:34:02.827Z,2.20
2023-03-22T13:35:43.254Z,2.20
2023-03-22T13:37:22.758Z,2.28
2023-03-22T13:38:54.789Z,2.20
2023-03-22T13:40:30.036Z,2.10
2023-03-22T13:42:07.952Z,2.15
2023-03-22T13:43:45.782Z,2.20
2023-03-22T13:45:31.561Z,1.90
2023-03-22T13:47:03.174Z,2.00
2023-03-22T13:48:44.769Z,2.22
2023-03-22T13:50:17.138Z,1.80
2023-03-22T13:51:48.973Z,2.00
2023-03-22T13:53:23.014Z,2.00
2023-03-22T13:54:57.207Z,1.83
2023-03-22T13:56:33.698Z,1.70
2023-03-22T13:58:05.846Z,1.75
2023-03-22T14:00:09.547Z,2.00
2023-03-22T14:01:47.626Z,1.90
2023-03-22T14:03:28.169Z,1.80
2023-03-22T14:05:04.084Z,2.00
2023-03-22T14:06:39.199Z,1.85
2023-03-22T14:08:18.450Z,1.90
2023-03-22T14:09:51.306Z,1.75
2023-03-22T14:11:26.190Z,1.70
2023-03-22T14:12:59.508Z,1.80
2023-03-22T14:14:33.024Z,1.83
2023-03-22T14:16:07.948Z,1.88
2023-03-22T14:17:42.151Z,1.60
2023-03-22T14:19:17.499Z,1.80
2023-03-22T14:20:51.936Z,1.60
